sensor_id;sensor_type;location;lat;lon;timestamp;P1;durP1;ratioP1;P2;durP2;ratioP2
20711;SDS011;10517;50.742;4.224;2022-07-23T00:00:50;11.48;;;8.32;;
20711;SDS011;10517;50.742;4.224;2022-07-23T00:03:15;8.93;;;8.07;;
20711;SDS011;10517;50.742;4.224;2022-07-23T00:05:41;10.35;;;8.55;;
20711;SDS011;10517;50.742;4.224;2022-07-23T00:08:07;9.77;;;7.78;;
20711;SDS011;10517;50.742;4.224;2022-07-23T00:10:33;9.07;;;7.85;;
20711;SDS011;10517;50.742;4.224;2022-07-23T00:12:59;8.02;;;7.22;;
20711;SDS011;10517;50.742;4.224;2022-07-23T00:15:24;9.80;;;7.65;;
20711;SDS011;10517;50.742;4.224;2022-07-23T00:17:50;9.15;;;8.25;;
20711;SDS011;10517;50.742;4.224;2022-07-23T00:20:16;9.93;;;7.15;;
20711;SDS011;10517;50.742;4.224;2022-07-23T00:22:48;9.32;;;7.88;;
20711;SDS011;10517;50.742;4.224;2022-07-23T00:25:15;10.40;;;7.75;;
20711;SDS011;10517;50.742;4.224;2022-07-23T00:27:41;8.88;;;7.53;;
20711;SDS011;10517;50.742;4.224;2022-07-23T00:30:07;10.98;;;8.20;;
20711;SDS011;10517;50.742;4.224;2022-07-23T00:32:44;10.15;;;8.40;;
20711;SDS011;10517;50.742;4.224;2022-07-23T00:35:14;7.97;;;7.18;;
20711;SDS011;10517;50.742;4.224;2022-07-23T00:37:40;10.07;;;8.10;;
20711;SDS011;10517;50.742;4.224;2022-07-23T00:40:06;15.27;;;8.45;;
20711;SDS011;10517;50.742;4.224;2022-07-23T00:42:32;9.52;;;8.07;;
20711;SDS011;10517;50.742;4.224;2022-07-23T00:44:58;10.57;;;8.35;;
20711;SDS011;10517;50.742;4.224;2022-07-23T00:47:24;12.30;;;7.72;;
20711;SDS011;10517;50.742;4.224;2022-07-23T00:49:49;11.75;;;9.15;;
20711;SDS011;10517;50.742;4.224;2022-07-23T00:52:15;13.43;;;9.05;;
20711;SDS011;10517;50.742;4.224;2022-07-23T00:54:41;9.98;;;8.27;;
20711;SDS011;10517;50.742;4.224;2022-07-23T00:57:06;10.10;;;8.40;;
20711;SDS011;10517;50.742;4.224;2022-07-23T00:59:33;12.18;;;8.70;;
20711;SDS011;10517;50.742;4.224;2022-07-23T01:01:59;13.18;;;8.25;;
20711;SDS011;10517;50.742;4.224;2022-07-23T01:04:24;10.65;;;8.48;;
20711;SDS011;10517;50.742;4.224;2022-07-23T01:06:50;11.00;;;7.95;;
20711;SDS011;10517;50.742;4.224;2022-07-23T01:09:16;9.50;;;8.10;;
20711;SDS011;10517;50.742;4.224;2022-07-23T01:11:41;11.18;;;7.82;;
20711;SDS011;10517;50.742;4.224;2022-07-23T01:14:15;10.25;;;7.85;;
20711;SDS011;10517;50.742;4.224;2022-07-23T01:16:42;12.35;;;9.38;;
20711;SDS011;10517;50.742;4.224;2022-07-23T01:19:09;10.57;;;8.45;;
20711;SDS011;10517;50.742;4.224;2022-07-23T01:21:42;11.75;;;8.65;;
20711;SDS011;10517;50.742;4.224;2022-07-23T01:24:09;13.60;;;8.05;;
20711;SDS011;10517;50.742;4.224;2022-07-23T01:26:36;14.40;;;9.73;;
20711;SDS011;10517;50.742;4.224;2022-07-23T01:29:02;14.32;;;10.50;;
20711;SDS011;10517;50.742;4.224;2022-07-23T01:31:28;13.40;;;10.00;;
20711;SDS011;10517;50.742;4.224;2022-07-23T01:33:54;12.88;;;9.18;;
20711;SDS011;10517;50.742;4.224;2022-07-23T01:36:20;11.90;;;8.70;;
20711;SDS011;10517;50.742;4.224;2022-07-23T01:38:46;11.60;;;8.95;;
20711;SDS011;10517;50.742;4.224;2022-07-23T01:41:12;10.75;;;9.55;;
20711;SDS011;10517;50.742;4.224;2022-07-23T01:43:37;16.20;;;10.63;;
20711;SDS011;10517;50.742;4.224;2022-07-23T01:46:03;11.95;;;9.85;;
20711;SDS011;10517;50.742;4.224;2022-07-23T01:48:29;17.23;;;9.80;;
20711;SDS011;10517;50.742;4.224;2022-07-23T01:50:54;12.77;;;10.20;;
20711;SDS011;10517;50.742;4.224;2022-07-23T01:53:20;11.88;;;9.25;;
20711;SDS011;10517;50.742;4.224;2022-07-23T01:55:46;14.60;;;9.73;;
20711;SDS011;10517;50.742;4.224;2022-07-23T01:58:11;14.93;;;10.50;;
20711;SDS011;10517;50.742;4.224;2022-07-23T02:00:37;13.63;;;9.63;;
20711;SDS011;10517;50.742;4.224;2022-07-23T02:03:03;10.60;;;9.27;;
20711;SDS011;10517;50.742;4.224;2022-07-23T02:05:29;12.07;;;9.73;;
20711;SDS011;10517;50.742;4.224;2022-07-23T02:07:55;12.75;;;9.65;;
20711;SDS011;10517;50.742;4.224;2022-07-23T02:10:21;15.05;;;10.65;;
20711;SDS011;10517;50.742;4.224;2022-07-23T02:12:46;14.10;;;9.50;;
20711;SDS011;10517;50.742;4.224;2022-07-23T02:15:12;14.77;;;10.13;;
20711;SDS011;10517;50.742;4.224;2022-07-23T02:17:38;15.02;;;9.32;;
20711;SDS011;10517;50.742;4.224;2022-07-23T02:20:05;12.40;;;10.20;;
20711;SDS011;10517;50.742;4.224;2022-07-23T02:22:31;14.13;;;9.70;;
20711;SDS011;10517;50.742;4.224;2022-07-23T02:24:57;14.77;;;10.23;;
20711;SDS011;10517;50.742;4.224;2022-07-23T02:27:22;10.85;;;9.45;;
20711;SDS011;10517;50.742;4.224;2022-07-23T02:29:48;13.18;;;10.02;;
20711;SDS011;10517;50.742;4.224;2022-07-23T02:32:14;13.50;;;9.98;;
20711;SDS011;10517;50.742;4.224;2022-07-23T02:34:40;11.05;;;9.18;;
20711;SDS011;10517;50.742;4.224;2022-07-23T02:37:05;12.98;;;10.23;;
20711;SDS011;10517;50.742;4.224;2022-07-23T02:39:33;19.23;;;9.38;;
20711;SDS011;10517;50.742;4.224;2022-07-23T02:41:59;15.65;;;9.93;;
20711;SDS011;10517;50.742;4.224;2022-07-23T02:44:28;12.75;;;9.52;;
20711;SDS011;10517;50.742;4.224;2022-07-23T02:46:54;14.57;;;10.10;;
20711;SDS011;10517;50.742;4.224;2022-07-23T02:49:19;15.48;;;10.25;;
20711;SDS011;10517;50.742;4.224;2022-07-23T02:51:45;12.80;;;10.90;;
20711;SDS011;10517;50.742;4.224;2022-07-23T02:54:11;13.57;;;10.32;;
20711;SDS011;10517;50.742;4.224;2022-07-23T02:56:36;11.38;;;9.07;;
20711;SDS011;10517;50.742;4.224;2022-07-23T02:59:02;16.30;;;9.38;;
20711;SDS011;10517;50.742;4.224;2022-07-23T03:01:27;12.20;;;9.00;;
20711;SDS011;10517;50.742;4.224;2022-07-23T03:03:53;20.27;;;10.40;;
20711;SDS011;10517;50.742;4.224;2022-07-23T03:06:19;12.75;;;9.65;;
20711;SDS011;10517;50.742;4.224;2022-07-23T03:08:44;12.68;;;9.50;;
20711;SDS011;10517;50.742;4.224;2022-07-23T03:11:10;12.30;;;10.50;;
20711;SDS011;10517;50.742;4.224;2022-07-23T03:13:39;14.38;;;9.27;;
20711;SDS011;10517;50.742;4.224;2022-07-23T03:16:05;14.38;;;9.63;;
20711;SDS011;10517;50.742;4.224;2022-07-23T03:18:31;12.40;;;9.13;;
20711;SDS011;10517;50.742;4.224;2022-07-23T03:20:57;12.75;;;9.68;;
20711;SDS011;10517;50.742;4.224;2022-07-23T03:23:23;13.27;;;9.60;;
20711;SDS011;10517;50.742;4.224;2022-07-23T03:25:48;12.18;;;9.38;;
20711;SDS011;10517;50.742;4.224;2022-07-23T03:28:15;11.80;;;9.38;;
20711;SDS011;10517;50.742;4.224;2022-07-23T03:30:41;13.25;;;8.98;;
20711;SDS011;10517;50.742;4.224;2022-07-23T03:33:07;13.68;;;9.43;;
20711;SDS011;10517;50.742;4.224;2022-07-23T03:35:33;11.25;;;8.52;;
20711;SDS011;10517;50.742;4.224;2022-07-23T03:37:59;10.07;;;9.02;;
20711;SDS011;10517;50.742;4.224;2022-07-23T03:40:25;13.93;;;9.60;;
20711;SDS011;10517;50.742;4.224;2022-07-23T03:42:50;11.73;;;9.75;;
20711;SDS011;10517;50.742;4.224;2022-07-23T03:45:16;15.73;;;9.63;;
20711;SDS011;10517;50.742;4.224;2022-07-23T03:47:41;13.05;;;9.52;;
20711;SDS011;10517;50.742;4.224;2022-07-23T03:50:08;15.82;;;10.60;;
20711;SDS011;10517;50.742;4.224;2022-07-23T03:52:34;13.35;;;9.55;;
20711;SDS011;10517;50.742;4.224;2022-07-23T03:55:00;15.70;;;10.27;;
20711;SDS011;10517;50.742;4.224;2022-07-23T03:57:26;13.55;;;9.43;;
20711;SDS011;10517;50.742;4.224;2022-07-23T03:59:52;13.07;;;9.38;;
20711;SDS011;10517;50.742;4.224;2022-07-23T04:02:17;18.23;;;10.35;;
20711;SDS011;10517;50.742;4.224;2022-07-23T04:04:43;16.00;;;10.02;;
20711;SDS011;10517;50.742;4.224;2022-07-23T04:07:08;15.57;;;10.60;;
20711;SDS011;10517;50.742;4.224;2022-07-23T04:09:34;16.42;;;10.43;;
20711;SDS011;10517;50.742;4.224;2022-07-23T04:11:59;14.90;;;10.85;;
20711;SDS011;10517;50.742;4.224;2022-07-23T04:14:26;17.48;;;10.88;;
20711;SDS011;10517;50.742;4.224;2022-07-23T04:16:51;15.00;;;11.35;;
20711;SDS011;10517;50.742;4.224;2022-07-23T04:19:17;14.43;;;9.70;;
20711;SDS011;10517;50.742;4.224;2022-07-23T04:21:43;13.07;;;10.65;;
20711;SDS011;10517;50.742;4.224;2022-07-23T04:24:08;14.20;;;11.52;;
20711;SDS011;10517;50.742;4.224;2022-07-23T04:26:34;12.60;;;10.45;;
20711;SDS011;10517;50.742;4.224;2022-07-23T04:28:59;14.68;;;11.02;;
20711;SDS011;10517;50.742;4.224;2022-07-23T04:31:25;20.08;;;10.77;;
20711;SDS011;10517;50.742;4.224;2022-07-23T04:33:50;14.93;;;11.25;;
20711;SDS011;10517;50.742;4.224;2022-07-23T04:36:16;18.42;;;11.35;;
20711;SDS011;10517;50.742;4.224;2022-07-23T04:38:42;16.08;;;10.25;;
20711;SDS011;10517;50.742;4.224;2022-07-23T04:41:07;12.65;;;10.13;;
20711;SDS011;10517;50.742;4.224;2022-07-23T04:43:33;28.58;;;10.32;;
20711;SDS011;10517;50.742;4.224;2022-07-23T04:45:58;12.55;;;9.48;;
20711;SDS011;10517;50.742;4.224;2022-07-23T04:48:24;14.15;;;10.20;;
20711;SDS011;10517;50.742;4.224;2022-07-23T04:50:50;11.98;;;8.73;;
20711;SDS011;10517;50.742;4.224;2022-07-23T04:53:15;11.18;;;9.15;;
20711;SDS011;10517;50.742;4.224;2022-07-23T04:55:43;17.73;;;10.50;;
20711;SDS011;10517;50.742;4.224;2022-07-23T04:58:09;15.02;;;10.40;;
20711;SDS011;10517;50.742;4.224;2022-07-23T05:00:34;17.02;;;10.80;;
20711;SDS011;10517;50.742;4.224;2022-07-23T05:03:00;13.25;;;10.45;;
20711;SDS011;10517;50.742;4.224;2022-07-23T05:05:26;13.13;;;10.20;;
20711;SDS011;10517;50.742;4.224;2022-07-23T05:07:52;20.77;;;9.95;;
20711;SDS011;10517;50.742;4.224;2022-07-23T05:10:17;14.15;;;9.80;;
20711;SDS011;10517;50.742;4.224;2022-07-23T05:12:43;15.57;;;10.52;;
20711;SDS011;10517;50.742;4.224;2022-07-23T05:15:09;13.15;;;9.68;;
20711;SDS011;10517;50.742;4.224;2022-07-23T05:17:34;14.45;;;9.18;;
20711;SDS011;10517;50.742;4.224;2022-07-23T05:20:00;16.63;;;9.27;;
20711;SDS011;10517;50.742;4.224;2022-07-23T05:22:26;12.38;;;9.85;;
20711;SDS011;10517;50.742;4.224;2022-07-23T05:24:51;14.10;;;8.70;;
20711;SDS011;10517;50.742;4.224;2022-07-23T05:27:17;13.15;;;9.57;;
20711;SDS011;10517;50.742;4.224;2022-07-23T05:29:42;12.23;;;9.45;;
20711;SDS011;10517;50.742;4.224;2022-07-23T05:32:08;10.48;;;8.25;;
20711;SDS011;10517;50.742;4.224;2022-07-23T05:34:34;14.98;;;8.45;;
20711;SDS011;10517;50.742;4.224;2022-07-23T05:36:59;12.48;;;9.57;;
20711;SDS011;10517;50.742;4.224;2022-07-23T05:39:25;15.02;;;9.68;;
20711;SDS011;10517;50.742;4.224;2022-07-23T05:41:50;15.55;;;10.05;;
20711;SDS011;10517;50.742;4.224;2022-07-23T05:44:16;12.80;;;9.73;;
20711;SDS011;10517;50.742;4.224;2022-07-23T05:46:42;11.63;;;8.88;;
20711;SDS011;10517;50.742;4.224;2022-07-23T05:49:08;15.32;;;9.50;;
20711;SDS011;10517;50.742;4.224;2022-07-23T05:51:33;16.13;;;9.73;;
20711;SDS011;10517;50.742;4.224;2022-07-23T05:53:59;13.45;;;9.27;;
20711;SDS011;10517;50.742;4.224;2022-07-23T05:56:24;13.43;;;10.07;;
20711;SDS011;10517;50.742;4.224;2022-07-23T05:58:50;14.75;;;9.77;;
20711;SDS011;10517;50.742;4.224;2022-07-23T06:01:16;13.45;;;9.30;;
20711;SDS011;10517;50.742;4.224;2022-07-23T06:03:41;15.70;;;9.88;;
20711;SDS011;10517;50.742;4.224;2022-07-23T06:06:07;13.23;;;8.95;;
20711;SDS011;10517;50.742;4.224;2022-07-23T06:08:32;13.27;;;8.35;;
20711;SDS011;10517;50.742;4.224;2022-07-23T06:10:58;13.73;;;10.27;;
20711;SDS011;10517;50.742;4.224;2022-07-23T06:13:24;12.90;;;9.38;;
20711;SDS011;10517;50.742;4.224;2022-07-23T06:15:49;14.73;;;9.20;;
20711;SDS011;10517;50.742;4.224;2022-07-23T06:18:15;14.80;;;8.55;;
20711;SDS011;10517;50.742;4.224;2022-07-23T06:20:41;18.17;;;9.63;;
20711;SDS011;10517;50.742;4.224;2022-07-23T06:23:06;14.82;;;9.02;;
20711;SDS011;10517;50.742;4.224;2022-07-23T06:25:32;15.60;;;9.80;;
20711;SDS011;10517;50.742;4.224;2022-07-23T06:27:58;12.70;;;9.20;;
20711;SDS011;10517;50.742;4.224;2022-07-23T06:30:23;13.13;;;9.93;;
20711;SDS011;10517;50.742;4.224;2022-07-23T06:32:49;12.27;;;9.35;;
20711;SDS011;10517;50.742;4.224;2022-07-23T06:35:15;17.60;;;8.70;;
20711;SDS011;10517;50.742;4.224;2022-07-23T06:37:41;15.88;;;8.77;;
20711;SDS011;10517;50.742;4.224;2022-07-23T06:40:07;10.05;;;8.35;;
20711;SDS011;10517;50.742;4.224;2022-07-23T06:42:33;14.27;;;7.70;;
20711;SDS011;10517;50.742;4.224;2022-07-23T06:45:02;13.90;;;8.27;;
20711;SDS011;10517;50.742;4.224;2022-07-23T06:47:28;18.48;;;8.38;;
20711;SDS011;10517;50.742;4.224;2022-07-23T06:49:54;16.77;;;9.07;;
20711;SDS011;10517;50.742;4.224;2022-07-23T06:52:19;13.07;;;8.38;;
20711;SDS011;10517;50.742;4.224;2022-07-23T06:54:45;10.35;;;7.90;;
20711;SDS011;10517;50.742;4.224;2022-07-23T06:57:10;10.80;;;8.45;;
20711;SDS011;10517;50.742;4.224;2022-07-23T06:59:36;11.50;;;7.82;;
20711;SDS011;10517;50.742;4.224;2022-07-23T07:02:05;11.88;;;8.02;;
20711;SDS011;10517;50.742;4.224;2022-07-23T07:04:31;10.57;;;8.38;;
20711;SDS011;10517;50.742;4.224;2022-07-23T07:06:57;10.65;;;8.07;;
20711;SDS011;10517;50.742;4.224;2022-07-23T07:09:22;10.05;;;6.90;;
20711;SDS011;10517;50.742;4.224;2022-07-23T07:11:48;10.95;;;8.70;;
20711;SDS011;10517;50.742;4.224;2022-07-23T07:14:14;16.33;;;8.25;;
20711;SDS011;10517;50.742;4.224;2022-07-23T07:16:40;13.52;;;8.35;;
20711;SDS011;10517;50.742;4.224;2022-07-23T07:19:05;9.77;;;7.57;;
20711;SDS011;10517;50.742;4.224;2022-07-23T07:21:31;13.10;;;8.57;;
20711;SDS011;10517;50.742;4.224;2022-07-23T07:23:57;12.50;;;7.57;;
20711;SDS011;10517;50.742;4.224;2022-07-23T07:26:22;12.00;;;8.32;;
20711;SDS011;10517;50.742;4.224;2022-07-23T07:28:48;10.82;;;7.45;;
20711;SDS011;10517;50.742;4.224;2022-07-23T07:31:13;10.35;;;7.43;;
20711;SDS011;10517;50.742;4.224;2022-07-23T07:33:39;12.93;;;8.30;;
20711;SDS011;10517;50.742;4.224;2022-07-23T07:36:05;9.23;;;6.90;;
20711;SDS011;10517;50.742;4.224;2022-07-23T07:38:30;7.63;;;6.82;;
20711;SDS011;10517;50.742;4.224;2022-07-23T07:40:56;10.93;;;7.60;;
20711;SDS011;10517;50.742;4.224;2022-07-23T07:43:22;11.68;;;7.30;;
20711;SDS011;10517;50.742;4.224;2022-07-23T07:45:47;12.35;;;7.90;;
20711;SDS011;10517;50.742;4.224;2022-07-23T07:48:13;10.48;;;7.82;;
20711;SDS011;10517;50.742;4.224;2022-07-23T07:50:39;8.27;;;6.50;;
20711;SDS011;10517;50.742;4.224;2022-07-23T07:53:04;10.93;;;6.85;;
20711;SDS011;10517;50.742;4.224;2022-07-23T07:55:30;8.50;;;6.57;;
20711;SDS011;10517;50.742;4.224;2022-07-23T07:57:56;11.32;;;6.68;;
20711;SDS011;10517;50.742;4.224;2022-07-23T08:00:21;10.70;;;6.95;;
20711;SDS011;10517;50.742;4.224;2022-07-23T08:02:49;9.05;;;6.70;;
20711;SDS011;10517;50.742;4.224;2022-07-23T08:05:20;9.50;;;6.97;;
20711;SDS011;10517;50.742;4.224;2022-07-23T08:07:52;9.98;;;7.03;;
20711;SDS011;10517;50.742;4.224;2022-07-23T08:10:18;15.07;;;7.28;;
20711;SDS011;10517;50.742;4.224;2022-07-23T08:12:45;10.35;;;5.88;;
20711;SDS011;10517;50.742;4.224;2022-07-23T08:15:13;8.50;;;6.13;;
20711;SDS011;10517;50.742;4.224;2022-07-23T08:17:40;9.45;;;6.55;;
20711;SDS011;10517;50.742;4.224;2022-07-23T08:20:07;7.80;;;6.28;;
20711;SDS011;10517;50.742;4.224;2022-07-23T08:25:16;8.95;;;6.20;;
20711;SDS011;10517;50.742;4.224;2022-07-23T08:27:45;10.60;;;6.50;;
20711;SDS011;10517;50.742;4.224;2022-07-23T08:30:13;9.75;;;7.47;;
20711;SDS011;10517;50.742;4.224;2022-07-23T08:32:50;8.43;;;6.82;;
20711;SDS011;10517;50.742;4.224;2022-07-23T08:35:17;9.80;;;6.57;;
20711;SDS011;10517;50.742;4.224;2022-07-23T08:37:43;7.55;;;6.65;;
20711;SDS011;10517;50.742;4.224;2022-07-23T08:40:10;8.65;;;6.03;;
20711;SDS011;10517;50.742;4.224;2022-07-23T08:42:39;9.02;;;6.78;;
20711;SDS011;10517;50.742;4.224;2022-07-23T08:45:06;8.38;;;6.28;;
20711;SDS011;10517;50.742;4.224;2022-07-23T08:47:33;8.52;;;6.05;;
20711;SDS011;10517;50.742;4.224;2022-07-23T08:50:01;6.25;;;5.65;;
20711;SDS011;10517;50.742;4.224;2022-07-23T08:52:27;5.78;;;5.20;;
20711;SDS011;10517;50.742;4.224;2022-07-23T08:54:54;8.90;;;5.65;;
20711;SDS011;10517;50.742;4.224;2022-07-23T08:57:21;7.32;;;6.03;;
20711;SDS011;10517;50.742;4.224;2022-07-23T08:59:49;9.43;;;6.13;;
20711;SDS011;10517;50.742;4.224;2022-07-23T09:02:15;5.63;;;5.10;;
20711;SDS011;10517;50.742;4.224;2022-07-23T09:04:41;7.78;;;5.45;;
20711;SDS011;10517;50.742;4.224;2022-07-23T09:07:06;6.90;;;5.75;;
20711;SDS011;10517;50.742;4.224;2022-07-23T09:09:33;6.18;;;5.45;;
20711;SDS011;10517;50.742;4.224;2022-07-23T09:12:03;6.15;;;5.38;;
20711;SDS011;10517;50.742;4.224;2022-07-23T09:15:03;6.60;;;5.95;;
20711;SDS011;10517;50.742;4.224;2022-07-23T09:17:28;9.77;;;7.00;;
20711;SDS011;10517;50.742;4.224;2022-07-23T09:20:10;7.97;;;5.75;;
20711;SDS011;10517;50.742;4.224;2022-07-23T09:22:37;5.88;;;5.28;;
20711;SDS011;10517;50.742;4.224;2022-07-23T09:25:10;9.40;;;5.97;;
20711;SDS011;10517;50.742;4.224;2022-07-23T09:30:15;10.48;;;5.32;;
20711;SDS011;10517;50.742;4.224;2022-07-23T09:32:41;6.88;;;5.35;;
20711;SDS011;10517;50.742;4.224;2022-07-23T09:35:07;6.57;;;5.38;;
20711;SDS011;10517;50.742;4.224;2022-07-23T09:37:33;4.80;;;4.40;;
20711;SDS011;10517;50.742;4.224;2022-07-23T09:40:05;5.25;;;4.50;;
20711;SDS011;10517;50.742;4.224;2022-07-23T09:42:36;4.80;;;4.30;;
20711;SDS011;10517;50.742;4.224;2022-07-23T09:45:02;5.78;;;5.18;;
20711;SDS011;10517;50.742;4.224;2022-07-23T09:47:29;7.88;;;4.82;;
20711;SDS011;10517;50.742;4.224;2022-07-23T09:50:09;9.32;;;5.18;;
20711;SDS011;10517;50.742;4.224;2022-07-23T09:52:46;6.45;;;5.45;;
20711;SDS011;10517;50.742;4.224;2022-07-23T09:55:13;6.93;;;5.10;;
20711;SDS011;10517;50.742;4.224;2022-07-23T09:57:40;6.47;;;5.10;;
20711;SDS011;10517;50.742;4.224;2022-07-23T10:00:06;6.57;;;5.45;;
20711;SDS011;10517;50.742;4.224;2022-07-23T10:02:37;5.07;;;4.68;;
20711;SDS011;10517;50.742;4.224;2022-07-23T10:05:04;6.72;;;5.22;;
20711;SDS011;10517;50.742;4.224;2022-07-23T10:07:39;5.70;;;4.57;;
20711;SDS011;10517;50.742;4.224;2022-07-23T10:10:07;6.78;;;4.80;;
20711;SDS011;10517;50.742;4.224;2022-07-23T10:12:33;6.55;;;5.10;;
20711;SDS011;10517;50.742;4.224;2022-07-23T10:15:20;6.10;;;4.53;;
20711;SDS011;10517;50.742;4.224;2022-07-23T10:17:48;7.88;;;5.15;;
20711;SDS011;10517;50.742;4.224;2022-07-23T10:20:14;4.68;;;4.28;;
20711;SDS011;10517;50.742;4.224;2022-07-23T10:22:42;4.43;;;4.05;;
20711;SDS011;10517;50.742;4.224;2022-07-23T10:25:21;7.55;;;4.68;;
20711;SDS011;10517;50.742;4.224;2022-07-23T10:30:28;4.18;;;3.88;;
20711;SDS011;10517;50.742;4.224;2022-07-23T10:33:14;4.90;;;4.43;;
20711;SDS011;10517;50.742;4.224;2022-07-23T10:36:02;5.32;;;4.65;;
20711;SDS011;10517;50.742;4.224;2022-07-23T10:38:35;4.28;;;3.97;;
20711;SDS011;10517;50.742;4.224;2022-07-23T10:41:10;4.68;;;4.15;;
20711;SDS011;10517;50.742;4.224;2022-07-23T10:43:36;4.50;;;4.10;;
20711;SDS011;10517;50.742;4.224;2022-07-23T10:54:38;4.75;;;3.97;;
20711;SDS011;10517;50.742;4.224;2022-07-23T10:57:05;5.32;;;4.22;;
20711;SDS011;10517;50.742;4.224;2022-07-23T11:00:07;5.28;;;4.25;;
20711;SDS011;10517;50.742;4.224;2022-07-23T11:02:34;4.90;;;4.50;;
20711;SDS011;10517;50.742;4.224;2022-07-23T11:05:03;6.30;;;4.63;;
20711;SDS011;10517;50.742;4.224;2022-07-23T11:07:34;4.35;;;3.95;;
20711;SDS011;10517;50.742;4.224;2022-07-23T11:10:00;4.65;;;3.80;;
20711;SDS011;10517;50.742;4.224;2022-07-23T11:15:11;4.28;;;3.97;;
20711;SDS011;10517;50.742;4.224;2022-07-23T11:17:58;8.18;;;4.57;;
20711;SDS011;10517;50.742;4.224;2022-07-23T11:20:27;4.75;;;4.35;;
20711;SDS011;10517;50.742;4.224;2022-07-23T11:22:56;4.60;;;4.15;;
20711;SDS011;10517;50.742;4.224;2022-07-23T11:27:55;10.18;;;4.80;;
20711;SDS011;10517;50.742;4.224;2022-07-23T11:30:39;4.38;;;4.07;;
20711;SDS011;10517;50.742;4.224;2022-07-23T11:35:35;4.53;;;4.20;;
20711;SDS011;10517;50.742;4.224;2022-07-23T11:38:04;5.32;;;4.78;;
20711;SDS011;10517;50.742;4.224;2022-07-23T11:40:38;5.35;;;4.47;;
20711;SDS011;10517;50.742;4.224;2022-07-23T11:43:07;5.53;;;4.63;;
20711;SDS011;10517;50.742;4.224;2022-07-23T11:45:38;5.32;;;4.35;;
20711;SDS011;10517;50.742;4.224;2022-07-23T11:48:05;4.68;;;4.28;;
20711;SDS011;10517;50.742;4.224;2022-07-23T11:50:34;4.57;;;4.18;;
20711;SDS011;10517;50.742;4.224;2022-07-23T11:53:01;4.90;;;4.50;;
20711;SDS011;10517;50.742;4.224;2022-07-23T11:55:27;4.00;;;3.60;;
20711;SDS011;10517;50.742;4.224;2022-07-23T11:57:55;6.72;;;3.67;;
20711;SDS011;10517;50.742;4.224;2022-07-23T12:00:22;4.95;;;4.55;;
20711;SDS011;10517;50.742;4.224;2022-07-23T12:02:51;5.43;;;4.90;;
20711;SDS011;10517;50.742;4.224;2022-07-23T12:07:50;4.68;;;4.28;;
20711;SDS011;10517;50.742;4.224;2022-07-23T12:10:18;5.10;;;4.40;;
20711;SDS011;10517;50.742;4.224;2022-07-23T12:13:00;5.35;;;4.60;;
20711;SDS011;10517;50.742;4.224;2022-07-23T12:15:49;4.70;;;4.13;;
20711;SDS011;10517;50.742;4.224;2022-07-23T12:18:18;4.40;;;4.00;;
20711;SDS011;10517;50.742;4.224;2022-07-23T12:20:46;5.07;;;4.05;;
20711;SDS011;10517;50.742;4.224;2022-07-23T12:23:15;4.40;;;4.10;;
20711;SDS011;10517;50.742;4.224;2022-07-23T12:25:43;3.53;;;3.33;;
20711;SDS011;10517;50.742;4.224;2022-07-23T12:28:17;4.10;;;3.80;;
20711;SDS011;10517;50.742;4.224;2022-07-23T12:30:54;4.38;;;4.00;;
20711;SDS011;10517;50.742;4.224;2022-07-23T12:33:31;4.40;;;4.00;;
20711;SDS011;10517;50.742;4.224;2022-07-23T12:36:04;8.93;;;5.03;;
20711;SDS011;10517;50.742;4.224;2022-07-23T12:38:41;4.38;;;3.97;;
20711;SDS011;10517;50.742;4.224;2022-07-23T12:41:11;4.72;;;4.35;;
20711;SDS011;10517;50.742;4.224;2022-07-23T12:43:38;4.22;;;3.92;;
20711;SDS011;10517;50.742;4.224;2022-07-23T12:51:18;8.40;;;4.38;;
20711;SDS011;10517;50.742;4.224;2022-07-23T12:53:49;4.90;;;4.50;;
20711;SDS011;10517;50.742;4.224;2022-07-23T12:56:17;4.43;;;4.03;;
20711;SDS011;10517;50.742;4.224;2022-07-23T13:06:27;4.43;;;4.05;;
20711;SDS011;10517;50.742;4.224;2022-07-23T13:08:54;4.32;;;3.92;;
20711;SDS011;10517;50.742;4.224;2022-07-23T13:11:20;4.43;;;4.03;;
20711;SDS011;10517;50.742;4.224;2022-07-23T13:13:46;4.10;;;3.80;;
20711;SDS011;10517;50.742;4.224;2022-07-23T13:16:11;4.70;;;4.30;;
20711;SDS011;10517;50.742;4.224;2022-07-23T13:18:37;4.35;;;4.05;;
20711;SDS011;10517;50.742;4.224;2022-07-23T13:21:03;4.30;;;4.00;;
20711;SDS011;10517;50.742;4.224;2022-07-23T13:23:28;6.03;;;4.18;;
20711;SDS011;10517;50.742;4.224;2022-07-23T13:25:54;4.60;;;4.22;;
20711;SDS011;10517;50.742;4.224;2022-07-23T13:28:21;5.57;;;5.07;;
20711;SDS011;10517;50.742;4.224;2022-07-23T13:30:48;5.05;;;4.55;;
20711;SDS011;10517;50.742;4.224;2022-07-23T13:33:15;4.60;;;4.30;;
20711;SDS011;10517;50.742;4.224;2022-07-23T13:35:42;4.75;;;4.28;;
20711;SDS011;10517;50.742;4.224;2022-07-23T13:38:08;5.20;;;4.70;;
20711;SDS011;10517;50.742;4.224;2022-07-23T13:40:35;4.75;;;4.45;;
20711;SDS011;10517;50.742;4.224;2022-07-23T13:43:04;4.47;;;4.28;;
20711;SDS011;10517;50.742;4.224;2022-07-23T13:45:31;4.80;;;4.50;;
20711;SDS011;10517;50.742;4.224;2022-07-23T13:47:56;5.10;;;4.72;;
20711;SDS011;10517;50.742;4.224;2022-07-23T13:50:22;5.38;;;4.93;;
20711;SDS011;10517;50.742;4.224;2022-07-23T13:52:48;5.10;;;4.70;;
20711;SDS011;10517;50.742;4.224;2022-07-23T13:55:14;4.68;;;4.38;;
20711;SDS011;10517;50.742;4.224;2022-07-23T13:57:40;5.53;;;4.78;;
20711;SDS011;10517;50.742;4.224;2022-07-23T14:00:06;4.93;;;4.63;;
20711;SDS011;10517;50.742;4.224;2022-07-23T14:02:35;4.97;;;4.68;;
20711;SDS011;10517;50.742;4.224;2022-07-23T14:05:03;4.72;;;4.43;;
20711;SDS011;10517;50.742;4.224;2022-07-23T14:07:33;4.90;;;4.70;;
20711;SDS011;10517;50.742;4.224;2022-07-23T14:09:59;5.05;;;4.75;;
20711;SDS011;10517;50.742;4.224;2022-07-23T14:12:25;5.28;;;4.97;;
20711;SDS011;10517;50.742;4.224;2022-07-23T14:14:51;4.90;;;4.60;;
20711;SDS011;10517;50.742;4.224;2022-07-23T14:17:17;6.22;;;5.75;;
20711;SDS011;10517;50.742;4.224;2022-07-23T14:19:43;5.35;;;4.95;;
20711;SDS011;10517;50.742;4.224;2022-07-23T14:22:08;5.75;;;5.35;;
20711;SDS011;10517;50.742;4.224;2022-07-23T14:24:34;5.90;;;5.38;;
20711;SDS011;10517;50.742;4.224;2022-07-23T14:27:00;6.40;;;5.50;;
20711;SDS011;10517;50.742;4.224;2022-07-23T14:29:27;5.45;;;5.15;;
20711;SDS011;10517;50.742;4.224;2022-07-23T14:31:53;5.78;;;5.47;;
20711;SDS011;10517;50.742;4.224;2022-07-23T14:34:19;6.82;;;6.32;;
20711;SDS011;10517;50.742;4.224;2022-07-23T14:36:47;6.10;;;5.80;;
20711;SDS011;10517;50.742;4.224;2022-07-23T14:39:12;6.35;;;5.88;;
20711;SDS011;10517;50.742;4.224;2022-07-23T14:41:38;5.82;;;5.47;;
20711;SDS011;10517;50.742;4.224;2022-07-23T14:44:04;6.25;;;5.82;;
20711;SDS011;10517;50.742;4.224;2022-07-23T14:46:31;6.85;;;6.25;;
20711;SDS011;10517;50.742;4.224;2022-07-23T14:48:56;6.13;;;5.80;;
20711;SDS011;10517;50.742;4.224;2022-07-23T14:51:22;6.50;;;6.00;;
20711;SDS011;10517;50.742;4.224;2022-07-23T14:53:47;6.25;;;5.85;;
20711;SDS011;10517;50.742;4.224;2022-07-23T14:56:13;6.47;;;5.88;;
20711;SDS011;10517;50.742;4.224;2022-07-23T14:58:39;6.90;;;6.30;;
20711;SDS011;10517;50.742;4.224;2022-07-23T15:01:05;6.70;;;6.30;;
20711;SDS011;10517;50.742;4.224;2022-07-23T15:03:31;7.10;;;6.60;;
20711;SDS011;10517;50.742;4.224;2022-07-23T15:05:57;6.28;;;5.78;;
20711;SDS011;10517;50.742;4.224;2022-07-23T15:08:23;6.40;;;5.97;;
20711;SDS011;10517;50.742;4.224;2022-07-23T15:10:49;5.93;;;5.55;;
20711;SDS011;10517;50.742;4.224;2022-07-23T15:13:15;6.20;;;5.90;;
20711;SDS011;10517;50.742;4.224;2022-07-23T15:15:41;6.80;;;6.35;;
20711;SDS011;10517;50.742;4.224;2022-07-23T15:18:06;6.45;;;6.05;;